Time;durP1;ratioP1;P1;durP2;ratioP2;P2;SDS_P1;SDS_P2;PMS_P1;PMS_P2;Temp;Humidity;BMP_temperature;BMP_pressure;BME280_temperature;BME280_humidity;BME280_pressure;Samples;Min_cycle;Max_cycle;Signal;HPM_P1;HPM_P2
2022/05/17 00:02:19;;;;;;;25.20;22.70;;;;;;;15.53;100.00;100757.41;5054370;28;20202;-80
2022/05/17 00:04:45;;;;;;;25.57;22.93;;;;;;;15.49;100.00;100754.88;5054738;28;20213;-80
2022/05/17 00:07:12;;;;;;;25.87;23.30;;;;;;;15.56;100.00;100766.06;5053071;28;20665;-80
2022/05/17 00:09:38;;;;;;;25.27;22.57;;;;;;;15.56;100.00;100759.94;5054210;28;20772;-79
2022/05/17 00:12:07;;;;;;;23.43;21.23;;;;;;;15.58;100.00;100766.00;5055404;28;20251;-79
2022/05/17 00:14:34;;;;;;;24.33;22.13;;;;;;;15.61;100.00;100771.16;5054433;28;20673;-79
2022/05/17 00:17:01;;;;;;;26.17;23.77;;;;;;;15.52;100.00;100772.34;5054482;28;20236;-80
2022/05/17 00:19:29;;;;;;;24.80;22.33;;;;;;;15.59;100.00;100779.09;5045044;28;20204;-81
2022/05/17 00:21:56;;;;;;;24.30;22.07;;;;;;;15.73;100.00;100776.03;5041030;28;20205;-81
2022/05/17 00:24:25;;;;;;;24.10;21.47;;;;;;;15.72;100.00;100786.56;5054722;28;20242;-78
2022/05/17 00:26:52;;;;;;;24.90;22.60;;;;;;;15.69;100.00;100791.03;5054297;28;20212;-79
2022/05/17 00:29:20;;;;;;;26.17;23.80;;;;;;;15.72;100.00;100794.47;5054373;28;20238;-82
2022/05/17 00:31:47;;;;;;;23.83;21.73;;;;;;;15.76;100.00;100793.50;5054481;28;20210;-82
2022/05/17 00:34:14;;;;;;;24.90;22.73;;;;;;;15.84;100.00;100800.22;5054421;28;20302;-80
2022/05/17 00:36:40;;;;;;;24.23;22.03;;;;;;;15.89;100.00;100794.78;5054178;28;20282;-80
2022/05/17 00:39:07;;;;;;;24.23;22.40;;;;;;;15.95;100.00;100812.13;5049257;28;20199;-81
2022/05/17 00:41:34;;;;;;;23.67;21.47;;;;;;;16.02;100.00;100811.00;5038367;28;20258;-81
2022/05/17 00:46:49;;;;;;;22.57;20.37;;;;;;;16.24;100.00;100835.66;5054360;28;20282;-82
2022/05/17 00:49:23;;;;;;;20.17;18.23;;;;;;;16.34;100.00;100843.22;5054188;28;20219;-80
2022/05/17 00:51:49;;;;;;;20.60;18.93;;;;;;;16.45;100.00;100859.50;5054352;28;20203;-81
2022/05/17 00:54:18;;;;;;;21.17;19.60;;;;;;;16.39;100.00;100872.88;5054702;28;20210;-80
2022/05/17 00:56:53;;;;;;;18.03;16.63;;;;;;;16.48;99.90;100873.41;5054111;28;20764;-80
2022/05/17 00:59:19;;;;;;;20.70;19.10;;;;;;;16.47;99.25;100887.53;5046492;28;20208;-80
2022/05/17 01:01:47;;;;;;;18.23;16.73;;;;;;;16.59;98.80;100894.13;5026317;28;20204;-81
2022/05/17 01:04:18;;;;;;;20.33;18.77;;;;;;;16.50;97.67;100909.41;5034335;28;20208;-80
2022/05/17 01:06:49;;;;;;;22.37;20.57;;;;;;;16.16;99.05;100884.28;5032525;28;20275;-80
2022/05/17 01:09:16;;;;;;;22.60;20.67;;;;;;;16.12;99.08;100875.59;5033573;28;20633;-80
2022/05/17 01:11:43;;;;;;;23.33;20.93;;;;;;;15.94;99.96;100858.69;5033943;28;20749;-81
2022/05/17 01:16:55;;;;;;;20.43;18.43;;;;;;;15.89;99.39;100858.81;5033850;28;20250;-81
2022/05/17 01:19:22;;;;;;;21.70;19.67;;;;;;;15.81;100.00;100842.41;5033060;28;20204;-80
2022/05/17 01:21:49;;;;;;;21.50;19.70;;;;;;;15.62;100.00;100828.16;5034000;28;20263;-80
2022/05/17 01:24:16;;;;;;;21.47;19.37;;;;;;;15.48;100.00;100804.94;5034055;28;20205;-80
2022/05/17 01:26:44;;;;;;;22.37;20.40;;;;;;;15.51;100.00;100788.19;5034214;28;20714;-80
2022/05/17 01:29:13;;;;;;;21.20;19.30;;;;;;;15.63;100.00;100793.03;5040350;28;20620;-80
2022/05/17 01:31:40;;;;;;;20.67;18.67;;;;;;;15.69;100.00;100783.13;5037474;28;20583;-80
2022/05/17 01:34:08;;;;;;;23.00;19.33;;;;;;;15.70;100.00;100791.91;5054121;28;20217;-82
2022/05/17 01:36:34;;;;;;;22.17;20.33;;;;;;;15.71;100.00;100793.63;5058478;28;20633;-82
2022/05/17 01:39:02;;;;;;;21.63;19.63;;;;;;;15.69;100.00;100795.44;5057290;28;20234;-83
2022/05/17 01:41:29;;;;;;;20.93;19.13;;;;;;;15.54;100.00;100786.31;5058929;28;20207;-82
2022/05/17 01:43:55;;;;;;;22.70;20.73;;;;;;;15.52;100.00;100785.50;5059008;28;20210;-82
2022/05/17 01:46:22;;;;;;;21.33;18.73;;;;;;;15.60;100.00;100791.38;5058433;28;20656;-82
2022/05/17 01:48:49;;;;;;;21.40;19.27;;;;;;;15.65;100.00;100799.94;5057768;28;20696;-81
2022/05/17 01:51:15;;;;;;;26.10;19.83;;;;;;;15.65;100.00;100804.34;5058551;28;20207;-82
2022/05/17 01:53:42;;;;;;;21.33;19.10;;;;;;;15.69;100.00;100819.13;5058912;28;20687;-81
2022/05/17 01:56:10;;;;;;;20.40;18.27;;;;;;;15.70;99.85;100831.38;5058105;28;20261;-81
2022/05/17 01:58:37;;;;;;;21.83;19.57;;;;;;;15.72;99.97;100821.66;5050877;28;20720;-80
2022/05/17 02:01:06;;;;;;;19.43;17.53;;;;;;;15.90;99.36;100830.72;5041280;28;20229;-83
2022/05/17 02:03:32;;;;;;;20.90;19.10;;;;;;;15.83;98.79;100839.75;5058686;28;20232;-81
2022/05/17 02:05:59;;;;;;;18.43;16.97;;;;;;;15.99;98.45;100843.56;5059373;28;20257;-82
2022/05/17 02:08:25;;;;;;;21.90;19.67;;;;;;;15.80;97.85;100860.94;5053687;28;20286;-80
2022/05/17 02:10:51;;;;;;;20.87;18.90;;;;;;;15.57;99.22;100837.97;5052348;28;20205;-81
2022/05/17 02:13:19;;;;;;;23.70;20.00;;;;;;;15.52;99.79;100811.81;5052936;28;20211;-80
2022/05/17 02:15:46;;;;;;;22.80;20.63;;;;;;;15.67;100.00;100802.53;5054393;28;20208;-83
2022/05/17 02:18:13;;;;;;;20.43;18.73;;;;;;;15.75;99.85;100815.47;5056812;28;20235;-83
2022/05/17 02:20:39;;;;;;;18.53;16.90;;;;;;;15.89;99.10;100819.31;5056365;28;20211;-83
2022/05/17 02:23:07;;;;;;;18.10;16.47;;;;;;;15.99;98.29;100842.72;5052302;28;20198;-83
2022/05/17 02:25:33;;;;;;;16.73;15.33;;;;;;;16.08;97.04;100852.94;5040410;28;20225;-82
2022/05/17 02:28:00;;;;;;;17.73;16.23;;;;;;;16.16;95.92;100893.03;5057266;28;20253;-84
2022/05/17 02:30:27;;;;;;;18.13;16.33;;;;;;;16.06;95.29;100900.38;5056311;28;20212;-83
2022/05/17 02:32:54;;;;;;;19.53;17.87;;;;;;;15.73;96.52;100875.19;5057286;28;20578;-83
2022/05/17 02:35:20;;;;;;;19.63;17.73;;;;;;;15.75;96.79;100857.56;5057069;28;20202;-82
2022/05/17 02:37:46;;;;;;;20.07;18.17;;;;;;;15.69;96.50;100864.72;5057727;28;20235;-83
2022/05/17 02:40:13;;;;;;;19.87;18.17;;;;;;;15.59;97.00;100855.41;5055251;28;20213;-83
2022/05/17 02:42:39;;;;;;;20.77;18.57;;;;;;;15.38;97.81;100835.06;5042285;28;20597;-83
2022/05/17 02:45:07;;;;;;;19.97;18.23;;;;;;;15.36;98.45;100823.72;5056770;28;20250;-82
2022/05/17 02:47:35;;;;;;;19.23;17.73;;;;;;;15.40;99.06;100802.56;5057696;28;20227;-82
2022/05/17 02:50:02;;;;;;;20.23;18.07;;;;;;;15.43;98.33;100812.13;5056966;28;20574;-83
2022/05/17 02:52:28;;;;;;;19.13;17.50;;;;;;;15.48;97.95;100818.09;5061910;28;20207;-83
2022/05/17 02:54:54;;;;;;;17.43;16.03;;;;;;;15.61;97.20;100836.94;5061726;28;20678;-82
2022/05/17 02:57:21;;;;;;;18.40;16.83;;;;;;;15.58;96.38;100869.50;5061901;28;20746;-83
2022/05/17 02:59:47;;;;;;;18.33;16.60;;;;;;;15.68;95.85;100878.81;5046477;28;20205;-82
2022/05/17 03:02:13;;;;;;;19.10;17.53;;;;;;;15.78;95.46;100895.19;5055458;28;20230;-82
2022/05/17 03:04:41;;;;;;;18.37;16.63;;;;;;;15.84;95.08;100904.66;5063862;28;20677;-82
2022/05/17 03:07:08;;;;;;;17.70;16.17;;;;;;;15.88;94.94;100903.66;5061424;28;20719;-82
2022/05/17 03:09:34;;;;;;;19.23;17.43;;;;;;;15.70;95.54;100899.81;5057786;28;20748;-80
2022/05/17 03:12:02;;;;;;;18.60;17.07;;;;;;;15.84;95.12;100905.50;5056126;28;20674;-79
2022/05/17 03:14:29;;;;;;;16.57;15.20;;;;;;;15.92;94.80;100917.56;5055960;28;20641;-79
2022/05/17 03:16:55;;;;;;;18.57;17.00;;;;;;;15.89;94.06;100935.16;5056012;28;20232;-81
2022/05/17 03:19:22;;;;;;;20.93;18.77;;;;;;;15.73;94.18;100935.72;5055596;28;20705;-81
2022/05/17 03:21:49;;;;;;;20.13;18.03;;;;;;;15.62;95.00;100910.59;5056548;28;20296;-80
2022/05/17 03:24:16;;;;;;;20.23;18.73;;;;;;;15.43;95.78;100902.41;5056273;28;20215;-80
2022/05/17 03:26:43;;;;;;;21.57;19.60;;;;;;;15.31;97.00;100863.34;5056332;28;20824;-82
2022/05/17 03:29:09;;;;;;;18.30;16.80;;;;;;;15.42;97.01;100863.00;5048656;28;20229;-80
2022/05/17 03:31:36;;;;;;;21.37;19.20;;;;;;;15.43;96.67;100875.25;5039600;28;20256;-80
2022/05/17 03:34:03;;;;;;;22.10;20.30;;;;;;;15.24;98.25;100843.41;5055930;28;20746;-81
2022/05/17 03:36:29;;;;;;;22.37;20.37;;;;;;;15.33;98.10;100845.75;5056255;28;20210;-79
2022/05/17 03:38:57;;;;;;;25.37;22.77;;;;;;;15.08;99.13;100830.75;5054864;28;20233;-79
2022/05/17 03:41:23;;;;;;;29.43;22.63;;;;;;;15.07;99.54;100817.66;5054083;28;20264;-80
2022/05/17 03:43:49;;;;;;;22.30;20.37;;;;;;;15.07;100.00;100812.41;5039424;28;20200;-80
2022/05/17 03:46:16;;;;;;;30.87;21.83;;;;;;;15.11;100.00;100811.38;5055808;28;20279;-81
2022/05/17 03:48:42;;;;;;;24.20;21.80;;;;;;;15.17;100.00;100818.22;5055017;28;20226;-81
2022/05/17 03:51:14;;;;;;;23.10;20.63;;;;;;;15.20;100.00;100815.47;5056562;28;20590;-80
2022/05/17 03:53:40;;;;;;;25.47;22.73;;;;;;;15.19;100.00;100829.56;5056374;28;20255;-82
2022/05/17 03:56:08;;;;;;;27.63;22.00;;;;;;;15.21;100.00;100827.75;5057746;28;20209;-82
2022/05/17 03:58:34;;;;;;;26.67;23.73;;;;;;;15.27;100.00;100838.91;5052789;28;20227;-81
2022/05/17 04:01:01;;;;;;;31.70;22.67;;;;;;;15.21;100.00;100830.38;5039803;28;20723;-83
2022/05/17 04:03:27;;;;;;;25.73;22.10;;;;;;;15.16;100.00;100819.13;5058313;28;20284;-81
2022/05/17 04:05:54;;;;;;;26.07;23.27;;;;;;;15.10;100.00;100814.91;5057905;28;20264;-82
2022/05/17 04:08:21;;;;;;;25.57;23.00;;;;;;;15.09;100.00;100818.47;5056447;28;20281;-82
2022/05/17 04:10:47;;;;;;;27.30;22.73;;;;;;;15.09;100.00;100810.56;5057067;28;20271;-82
2022/05/17 04:13:15;;;;;;;28.47;24.03;;;;;;;15.08;100.00;100812.34;5058091;28;20672;-82
2022/05/17 04:15:42;;;;;;;27.27;22.73;;;;;;;15.00;100.00;100806.44;5058171;28;20265;-82
2022/05/17 04:18:09;;;;;;;25.07;22.77;;;;;;;15.03;100.00;100808.16;5058309;28;20284;-82
2022/05/17 04:20:36;;;;;;;29.43;24.00;;;;;;;15.00;100.00;100808.22;5058184;28;20302;-80
2022/05/17 04:23:02;;;;;;;27.70;25.17;;;;;;;15.07;100.00;100807.13;5058185;28;20257;-83
2022/05/17 04:25:29;;;;;;;26.80;22.90;;;;;;;15.09;100.00;100794.81;5057584;28;20259;-82
2022/05/17 04:27:56;;;;;;;25.43;22.97;;;;;;;15.07;100.00;100810.63;5058292;28;20275;-81
2022/05/17 04:30:24;;;;;;;24.40;21.93;;;;;;;15.11;100.00;100821.06;5037674;28;20213;-83
2022/05/17 04:32:51;;;;;;;25.50;23.10;;;;;;;15.12;100.00;100817.50;5058763;28;20206;-81
2022/05/17 04:35:18;;;;;;;29.03;21.77;;;;;;;15.01;100.00;100816.06;5058174;28;20206;-82
2022/05/17 04:37:45;;;;;;;25.23;21.70;;;;;;;15.01;100.00;100820.47;5058681;28;20646;-82
2022/05/17 04:40:13;;;;;;;23.73;21.27;;;;;;;15.07;100.00;100821.13;5057752;28;20282;-83
2022/05/17 04:42:41;;;;;;;23.20;20.63;;;;;;;15.15;100.00;100825.31;5055948;28;20787;-83
2022/05/17 04:45:11;;;;;;;22.23;19.90;;;;;;;15.20;100.00;100831.25;5039956;28;20674;-82
2022/05/17 04:47:41;;;;;;;21.90;19.77;;;;;;;15.26;100.00;100828.44;5055620;28;20271;-82
2022/05/17 04:50:08;;;;;;;21.20;19.00;;;;;;;15.39;100.00;100844.69;5057315;28;20259;-82
2022/05/17 04:52:34;;;;;;;21.20;19.23;;;;;;;15.48;100.00;100868.94;5057907;28;20649;-83
2022/05/17 04:55:01;;;;;;;22.27;19.30;;;;;;;15.31;100.00;100888.81;5058182;28;20210;-83
2022/05/17 04:57:27;;;;;;;22.17;20.00;;;;;;;15.24;100.00;100870.59;5058104;28;20227;-82
2022/05/17 04:59:53;;;;;;;21.87;19.63;;;;;;;15.23;100.00;100858.34;5056873;28;20581;-82
2022/05/17 05:02:20;;;;;;;21.63;19.63;;;;;;;15.31;100.00;100862.50;5057339;28;20212;-81
2022/05/17 05:04:47;;;;;;;20.60;18.87;;;;;;;15.32;100.00;100869.47;5058624;28;20569;-82
2022/05/17 05:07:14;;;;;;;20.23;17.97;;;;;;;15.38;100.00;100882.41;5055614;28;20229;-83
2022/05/17 05:09:40;;;;;;;18.20;16.53;;;;;;;15.42;100.00;100887.56;5057420;28;20274;-82
2022/05/17 05:12:07;;;;;;;21.57;19.23;;;;;;;15.32;100.00;100909.81;5058430;28;20636;-82
2022/05/17 05:14:34;;;;;;;19.87;18.17;;;;;;;15.27;100.00;100902.03;5044920;28;20211;-82
2022/05/17 05:17:00;;;;;;;20.37;18.47;;;;;;;15.28;100.00;100898.50;5045691;28;20222;-82
2022/05/17 05:19:26;;;;;;;22.23;19.70;;;;;;;15.37;100.00;100891.22;5057251;28;20617;-81
2022/05/17 05:21:54;;;;;;;20.03;17.93;;;;;;;15.36;100.00;100906.16;5058276;28;20672;-82
2022/05/17 05:24:20;;;;;;;21.33;19.40;;;;;;;15.39;100.00;100898.16;5057538;28;20698;-81
2022/05/17 05:26:47;;;;;;;20.93;18.83;;;;;;;15.49;100.00;100885.56;5046466;28;20661;-82
2022/05/17 05:29:13;;;;;;;19.97;18.07;;;;;;;15.61;100.00;100886.94;5025466;28;20192;-83
2022/05/17 05:31:39;;;;;;;20.07;18.13;;;;;;;15.69;100.00;100892.81;5028162;28;20309;-82
2022/05/17 05:34:06;;;;;;;18.53;16.80;;;;;;;15.74;100.00;100901.47;5027165;28;20662;-82
2022/05/17 05:36:32;;;;;;;21.87;17.13;;;;;;;15.85;100.00;100909.00;5026699;28;20206;-83
2022/05/17 05:39:00;;;;;;;19.47;15.57;;;;;;;15.97;99.55;100920.88;5025822;28;20239;-83
2022/05/17 05:41:26;;;;;;;17.50;15.63;;;;;;;16.01;99.11;100933.03;5027850;28;20208;-82
2022/05/17 05:43:53;;;;;;;13.50;12.30;;;;;;;16.13;97.38;100958.97;5031323;28;20207;-80
2022/05/17 05:46:19;;;;;;;12.30;10.80;;;;;;;16.08;94.49;101043.41;5028359;28;20207;-80
2022/05/17 05:48:45;;;;;;;14.60;11.23;;;;;;;16.20;94.46;101054.47;5033467;28;20239;-79
2022/05/17 05:51:12;;;;;;;13.43;12.17;;;;;;;16.29;94.44;101051.50;5040276;28;20264;-79
2022/05/17 05:53:39;;;;;;;14.33;11.57;;;;;;;16.30;94.27;101053.25;5037996;28;20209;-79
2022/05/17 05:56:07;;;;;;;16.50;11.40;;;;;;;16.29;93.79;101069.94;5041121;28;20195;-78
2022/05/17 05:58:35;;;;;;;15.43;11.03;;;;;;;16.24;92.36;101091.19;5039101;28;20286;-81
2022/05/17 06:01:02;;;;;;;11.30;10.20;;;;;;;16.30;91.61;101132.28;5025468;28;20259;-81
2022/05/17 06:03:29;;;;;;;12.23;10.87;;;;;;;16.40;91.59;101131.06;5026300;28;20228;-82
2022/05/17 06:05:56;;;;;;;13.20;11.40;;;;;;;16.43;92.34;101095.84;5024318;28;20693;-79
2022/05/17 06:08:22;;;;;;;11.77;10.20;;;;;;;16.37;91.16;101128.56;5026356;28;20225;-80
2022/05/17 06:10:49;;;;;;;11.83;10.17;;;;;;;16.47;91.02;101135.25;5024868;28;20229;-80
2022/05/17 06:13:18;;;;;;;12.33;10.03;;;;;;;16.61;90.65;101133.91;5024035;28;20207;-79
2022/05/17 06:15:45;;;;;;;12.33;10.60;;;;;;;16.59;90.33;101157.72;5025887;28;20201;-79
2022/05/17 06:18:13;;;;;;;16.63;9.53;;;;;;;16.57;88.97;101179.72;5026303;28;20229;-80
2022/05/17 06:20:39;;;;;;;11.23;9.83;;;;;;;16.61;89.65;101176.97;5024259;28;20200;-82
2022/05/17 06:23:07;;;;;;;11.03;8.80;;;;;;;16.58;88.68;101189.38;5029003;28;20271;-81
2022/05/17 06:25:33;;;;;;;11.03;8.93;;;;;;;16.65;88.92;101190.91;5029102;28;20282;-81
2022/05/17 06:28:00;;;;;;;10.43;9.33;;;;;;;16.73;89.63;101154.63;5023761;28;20222;-80
2022/05/17 06:30:28;;;;;;;11.40;10.23;;;;;;;16.75;89.62;101165.97;5024902;28;20208;-80
2022/05/17 06:32:54;;;;;;;10.53;9.50;;;;;;;16.81;88.87;101171.06;5026404;28;20203;-80
2022/05/17 06:35:21;;;;;;;16.53;11.13;;;;;;;16.84;88.56;101192.06;5029305;28;20199;-79
2022/05/17 06:37:47;;;;;;;15.27;8.93;;;;;;;16.97;89.08;101174.06;5024445;28;20232;-80
2022/05/17 06:40:14;;;;;;;9.83;7.83;;;;;;;17.20;88.17;101183.81;5025114;28;20288;-80
2022/05/17 06:42:40;;;;;;;9.97;8.10;;;;;;;17.29;86.12;101251.25;5026067;28;20208;-80
2022/05/17 06:45:09;;;;;;;8.53;7.53;;;;;;;17.31;84.73;101280.25;5023765;28;20222;-80
2022/05/17 06:47:36;;;;;;;14.53;7.63;;;;;;;17.29;84.73;101306.66;5022998;28;20284;-81
2022/05/17 06:50:03;;;;;;;9.70;7.33;;;;;;;17.42;84.45;101305.34;5024846;28;20200;-80
2022/05/17 06:52:30;;;;;;;9.83;8.33;;;;;;;17.52;84.39;101297.09;5025715;28;20212;-80
2022/05/17 06:54:56;;;;;;;12.07;7.87;;;;;;;17.49;84.41;101297.22;5023453;28;20257;-80
2022/05/17 06:57:23;;;;;;;10.07;7.53;;;;;;;17.53;83.82;101298.84;5025262;28;20626;-80
2022/05/17 06:59:49;;;;;;;9.67;7.80;;;;;;;17.57;85.27;101271.44;5024083;28;20271;-79
2022/05/17 07:02:16;;;;;;;12.83;8.03;;;;;;;17.66;84.34;101287.81;5023646;28;20232;-80
2022/05/17 07:04:44;;;;;;;10.57;7.30;;;;;;;17.79;83.91;101288.22;5030797;28;20682;-80
2022/05/17 07:07:10;;;;;;;12.73;6.87;;;;;;;17.65;82.97;101332.75;5026806;28;20706;-81
2022/05/17 07:09:37;;;;;;;10.67;7.77;;;;;;;17.64;82.83;101336.28;5024403;28;20196;-80
2022/05/17 07:14:49;;;;;;;11.83;6.10;;;;;;;17.71;80.50;101366.00;5025834;28;20209;-80
2022/05/17 07:17:17;;;;;;;6.17;5.57;;;;;;;17.75;81.58;101367.63;5025922;28;20228;-79
2022/05/17 07:19:46;;;;;;;10.50;7.30;;;;;;;17.88;82.19;101341.66;5023865;28;20273;-79
2022/05/17 07:22:13;;;;;;;10.90;6.87;;;;;;;17.92;80.40;101381.16;5022480;28;20704;-81
2022/05/17 07:24:41;;;;;;;8.80;6.00;;;;;;;17.75;79.57;101421.28;5025566;28;20197;-79
2022/05/17 07:27:09;;;;;;;10.77;7.03;;;;;;;17.89;79.75;101410.31;5025716;28;20788;-79
2022/05/17 07:29:36;;;;;;;10.37;5.63;;;;;;;18.10;80.11;101411.34;5024406;28;20283;-79
2022/05/17 07:32:03;;;;;;;7.03;5.63;;;;;;;18.13;81.15;101368.94;5023980;28;20244;-80
2022/05/17 07:34:30;;;;;;;12.33;7.10;;;;;;;17.94;80.44;101391.66;5029770;28;20691;-81
2022/05/17 07:36:57;;;;;;;8.97;7.90;;;;;;;17.98;80.73;101366.88;5028666;28;20224;-79
2022/05/17 07:39:24;;;;;;;7.73;6.87;;;;;;;17.95;79.85;101394.25;5025380;28;20669;-81
2022/05/17 07:41:52;;;;;;;7.63;6.60;;;;;;;17.88;80.42;101383.94;5026219;28;20683;-79
2022/05/17 07:44:19;;;;;;;11.50;7.30;;;;;;;17.87;80.28;101393.66;5028231;28;20211;-79
2022/05/17 07:46:45;;;;;;;8.77;7.00;;;;;;;18.08;80.50;101370.91;5027436;28;20616;-80
2022/05/17 07:49:11;;;;;;;8.73;7.30;;;;;;;18.23;79.89;101388.00;5026788;28;20205;-79
2022/05/17 07:51:38;;;;;;;7.97;7.20;;;;;;;18.34;80.05;101374.41;5026224;28;20248;-79
2022/05/17 07:54:06;;;;;;;7.53;6.53;;;;;;;18.26;79.41;101394.03;5028489;28;20229;-80
2022/05/17 07:56:33;;;;;;;11.53;6.27;;;;;;;18.45;79.20;101383.66;5031324;28;20636;-79
2022/05/17 07:58:59;;;;;;;8.17;6.23;;;;;;;18.52;78.59;101417.81;5038424;28;20631;-80
2022/05/17 08:01:25;;;;;;;8.07;6.93;;;;;;;18.56;78.63;101409.69;5039889;28;20739;-80
2022/05/17 08:03:52;;;;;;;8.80;6.43;;;;;;;18.75;78.53;101391.38;5041523;28;20602;-79
2022/05/17 08:06:19;;;;;;;7.90;6.87;;;;;;;18.80;78.20;101402.66;5041943;28;20211;-79
2022/05/17 08:08:46;;;;;;;6.73;5.93;;;;;;;18.92;77.92;101401.34;5058336;28;20229;-78
2022/05/17 08:11:13;;;;;;;14.60;7.27;;;;;;;18.69;77.31;101430.41;5058120;28;20261;-78
2022/05/17 08:13:40;;;;;;;7.90;6.00;;;;;;;18.76;77.96;101403.66;5058066;28;20208;-78
2022/05/17 08:16:06;;;;;;;10.20;6.07;;;;;;;18.90;79.88;101363.50;5058140;28;20270;-79
2022/05/17 08:18:34;;;;;;;7.27;6.13;;;;;;;19.00;77.10;101407.19;5059263;28;20235;-78
2022/05/17 08:21:00;;;;;;;6.27;5.30;;;;;;;19.01;75.56;101471.59;5043972;28;20269;-79
2022/05/17 08:23:27;;;;;;;6.97;5.27;;;;;;;19.17;75.30;101482.47;5028474;28;20651;-79
2022/05/17 08:28:38;;;;;;;6.07;5.27;;;;;;;19.20;72.28;101583.75;5031972;28;20987;-77
2022/05/17 08:31:05;;;;;;;6.00;4.87;;;;;;;19.33;73.49;101563.00;5027414;28;20253;-78
2022/05/17 08:33:31;;;;;;;5.23;4.80;;;;;;;19.54;73.77;101536.63;5031620;28;20208;-79
2022/05/17 08:36:01;;;;;;;7.43;5.40;;;;;;;19.60;71.86;101557.56;5033998;28;20635;-79
2022/05/17 08:38:30;;;;;;;9.60;6.00;;;;;;;19.56;71.60;101601.88;5029084;28;20233;-78
2022/05/17 08:41:13;;;;;;;6.20;4.57;;;;;;;19.58;73.11;101565.59;5028567;28;20207;-79
2022/05/17 08:43:50;;;;;;;5.00;4.50;;;;;;;19.65;72.12;101569.72;5029512;28;20198;-78
2022/05/17 08:46:26;;;;;;;5.90;4.70;;;;;;;19.65;72.90;101555.63;5027895;28;20206;-78
2022/05/17 08:48:56;;;;;;;7.20;4.67;;;;;;;19.68;72.55;101557.28;5025371;28;20228;-78
2022/05/17 08:51:33;;;;;;;6.27;5.03;;;;;;;19.73;70.74;101601.25;5026306;28;20614;-78
2022/05/17 08:54:00;;;;;;;5.27;4.73;;;;;;;19.48;70.06;101638.34;5025453;28;20205;-79
2022/05/17 08:56:29;;;;;;;4.93;4.47;;;;;;;19.51;71.95;101582.63;5027471;28;20212;-79
2022/05/17 08:58:58;;;;;;;6.23;4.43;;;;;;;19.61;70.82;101599.03;5026456;28;20724;-79
2022/05/17 09:01:33;;;;;;;6.03;4.57;;;;;;;19.79;71.69;101576.31;5027992;28;20252;-78
2022/05/17 09:04:23;;;;;;;5.80;3.63;;;;;;;19.76;68.70;101655.91;5029358;28;20206;-78
2022/05/17 09:06:55;;;;;;;5.83;4.60;;;;;;;19.68;67.70;101708.28;5028669;28;20696;-79
2022/05/17 09:09:26;;;;;;;3.93;3.20;;;;;;;19.79;68.11;101703.50;5026776;28;20243;-78
2022/05/17 09:11:58;;;;;;;7.43;3.63;;;;;;;19.81;67.11;101728.13;5025578;28;20201;-77
2022/05/17 09:14:30;;;;;;;4.87;3.17;;;;;;;19.89;65.74;101760.53;5026761;28;20200;-79
2022/05/17 09:16:59;;;;;;;6.97;2.80;;;;;;;19.94;65.78;101785.06;5026895;28;20229;-79
2022/05/17 09:19:26;;;;;;;4.50;2.63;;;;;;;20.00;65.75;101771.59;5025358;28;20287;-78
2022/05/17 09:21:58;;;;;;;4.50;2.77;;;;;;;20.02;65.34;101784.81;5025673;28;20208;-78
2022/05/17 09:24:29;;;;;;;4.73;3.13;;;;;;;19.81;64.33;101795.25;5027154;28;20656;-78
2022/05/17 09:27:03;;;;;;;4.27;2.90;;;;;;;19.99;65.51;101774.28;5028004;28;20248;-78
2022/05/17 09:29:37;;;;;;;3.87;2.73;;;;;;;19.88;63.13;101832.13;5026680;28;20224;-78
2022/05/17 09:32:07;;;;;;;4.80;2.10;;;;;;;20.01;63.91;101822.81;5025813;28;20208;-77
2022/05/17 09:34:36;;;;;;;5.63;2.27;;;;;;;20.09;63.73;101825.19;5031943;28;20210;-77
2022/05/17 09:37:07;;;;;;;2.87;2.30;;;;;;;20.02;63.46;101824.56;5022906;28;20291;-78
2022/05/17 09:39:33;;;;;;;3.33;2.13;;;;;;;20.21;63.80;101803.53;5023924;28;20226;-79
2022/05/17 09:42:02;;;;;;;3.73;2.07;;;;;;;20.41;65.24;101771.78;5025175;28;20201;-79
2022/05/17 09:44:33;;;;;;;3.67;2.07;;;;;;;20.52;62.00;101850.97;5024508;28;20199;-80
2022/05/17 09:47:03;;;;;;;5.57;2.00;;;;;;;20.38;60.41;101885.97;5024304;28;20587;-79
2022/05/17 09:52:34;;;;;;;4.33;1.70;;;;;;;20.48;60.33;101905.06;5025972;28;20208;-80
2022/05/17 09:55:12;;;;;;;3.67;1.77;;;;;;;20.31;60.73;101876.50;5026669;28;20203;-80
2022/05/17 09:57:52;;;;;;;4.17;2.30;;;;;;;20.26;61.73;101857.25;5024096;28;20216;-79
2022/05/17 10:00:24;;;;;;;4.20;2.40;;;;;;;20.54;60.70;101850.94;5022826;28;20260;-80
2022/05/17 10:02:52;;;;;;;2.20;1.70;;;;;;;20.65;59.54;101900.94;5024355;28;20202;-78
2022/05/17 10:05:24;;;;;;;2.77;1.40;;;;;;;20.68;57.03;101944.16;5028579;28;20265;-78
2022/05/17 10:08:02;;;;;;;3.83;1.53;;;;;;;20.67;56.17;101995.47;5023504;28;20217;-81
2022/05/17 10:10:35;;;;;;;2.73;1.60;;;;;;;20.77;56.85;101988.94;5025801;28;20201;-81
2022/05/17 10:13:18;;;;;;;5.73;1.50;;;;;;;20.84;56.07;101997.53;5025682;28;20208;-80
2022/05/17 10:15:50;;;;;;;4.07;1.97;;;;;;;20.88;54.87;102006.25;5025948;28;20584;-81
2022/05/17 10:18:32;;;;;;;2.00;1.30;;;;;;;20.86;52.12;102088.59;5028037;28;20227;-79
2022/05/17 10:21:09;;;;;;;2.33;1.00;;;;;;;20.97;50.98;102110.31;5036425;28;20325;-79
2022/05/17 10:23:44;;;;;;;2.30;1.20;;;;;;;21.13;50.56;102109.75;5034918;28;20189;-78
2022/05/17 10:26:14;;;;;;;3.07;1.13;;;;;;;21.18;51.71;102152.94;5038446;28;20668;-80
2022/05/17 10:28:44;;;;;;;6.27;1.30;;;;;;;21.26;51.74;102110.16;5025990;28;20271;-80
2022/05/17 10:31:21;;;;;;;2.47;1.40;;;;;;;21.18;51.86;102121.94;5025592;28;20198;-80
2022/05/17 10:34:02;;;;;;;2.00;1.50;;;;;;;21.27;51.55;102093.28;5029329;28;20208;-80
2022/05/17 10:36:39;;;;;;;1.80;1.30;;;;;;;21.25;54.01;102053.53;5038588;28;20247;-80
2022/05/17 10:39:14;;;;;;;1.97;1.50;;;;;;;21.37;53.01;102017.66;5054390;28;20208;-80
2022/05/17 10:41:41;;;;;;;2.13;1.10;;;;;;;21.47;52.47;102044.78;5055133;28;20216;-79
2022/05/17 10:44:07;;;;;;;2.80;1.10;;;;;;;21.53;51.54;102058.69;5055213;28;20239;-79
2022/05/17 10:46:37;;;;;;;1.83;1.13;;;;;;;;;;5054853;28;20241;-81
2022/05/17 10:49:17;;;;;;;1.47;1.00;;;;;;;21.87;51.06;102089.25;5055012;28;20202;-82
2022/05/17 10:51:56;;;;;;;1.67;1.20;;;;;;;21.99;50.21;102103.84;5056840;28;20205;-80
2022/05/17 10:54:37;;;;;;;3.20;1.40;;;;;;;21.86;47.74;102153.09;5058279;28;20587;-79
2022/05/17 10:57:11;;;;;;;1.53;0.97;;;;;;;21.95;48.43;102158.06;5054292;28;20235;-80
2022/05/17 10:59:44;;;;;;;2.10;1.23;;;;;;;22.06;48.27;102154.97;5053628;28;20240;-79
2022/05/17 11:02:24;;;;;;;2.73;1.47;;;;;;;22.06;47.94;102170.94;5053243;28;20213;-79
2022/05/17 11:05:08;;;;;;;1.47;1.20;;;;;;;21.99;48.66;102130.44;5045787;28;20676;-81
2022/05/17 11:07:54;;;;;;;2.93;0.97;;;;;;;22.05;46.70;102169.22;5051056;28;20283;-80
2022/05/17 11:10:31;;;;;;;1.50;1.00;;;;;;;21.96;46.28;102166.00;5053682;28;20209;-81
2022/05/17 11:13:14;;;;;;;2.07;1.20;;;;;;;22.00;46.72;102169.38;5057917;28;20582;-81
2022/05/17 11:15:45;;;;;;;2.13;1.10;;;;;;;21.98;46.66;102166.81;5059049;28;20633;-81
2022/05/17 11:18:22;;;;;;;1.10;0.70;;;;;;;21.84;46.40;102184.19;5058795;28;20232;-81
2022/05/17 11:20:54;;;;;;;1.23;0.87;;;;;;;21.72;46.73;102172.25;5058801;28;20552;-81
2022/05/17 11:23:46;;;;;;;2.80;1.00;;;;;;;21.96;47.30;102138.50;5058510;28;20251;-81
2022/05/17 11:26:40;;;;;;;2.40;1.20;;;;;;;22.23;45.91;102133.03;5058051;28;20201;-81
2022/05/17 11:29:25;;;;;;;1.50;0.90;;;;;;;22.25;45.48;102190.59;5053730;28;20676;-82
2022/05/17 11:31:56;;;;;;;1.93;0.97;;;;;;;22.54;45.59;102185.91;5057373;28;20204;-81
2022/05/17 11:34:35;;;;;;;1.53;1.23;;;;;;;23.66;44.82;102193.47;5043349;28;20206;-77
2022/05/17 11:37:05;;;;;;;3.97;1.30;;;;;;;24.33;41.27;102219.66;5037777;28;20340;-79